Time;durP1;ratioP1;P1;durP2;ratioP2;P2;SDS_P1;SDS_P2;PMS_P1;PMS_P2;Temp;Humidity;BMP_temperature;BMP_pressure;BME280_temperature;BME280_humidity;BME280_pressure;Samples;Min_cycle;Max_cycle;Signal;HPM_P1;HPM_P2
2022/06/14 00:00:53;;;;;;;9.90;3.20;;;11.80;99.90;;;;;;5047680;28;20040;-79
2022/06/14 00:03:48;;;;;;;8.57;3.47;;;11.70;99.90;;;;;;5032180;28;20098;-79
2022/06/14 00:06:23;;;;;;;9.43;3.70;;;11.80;99.90;;;;;;5037628;28;20049;-79
2022/06/14 00:08:49;;;;;;;10.93;3.55;;;11.80;99.90;;;;;;5044660;28;20052;-79
2022/06/14 00:11:19;;;;;;;7.35;3.17;;;11.80;99.90;;;;;;5031019;28;20643;-79
2022/06/14 00:13:46;;;;;;;10.77;3.33;;;11.80;99.90;;;;;;5047852;28;20047;-80
2022/06/14 00:16:13;;;;;;;13.77;3.65;;;11.80;99.90;;;;;;5046175;28;20044;-79
2022/06/14 00:18:39;;;;;;;10.85;3.63;;;11.80;99.90;;;;;;5047604;28;20072;-79
2022/06/14 00:21:05;;;;;;;9.18;3.15;;;11.80;99.90;;;;;;5047509;28;20068;-79
2022/06/14 00:23:31;;;;;;;10.32;3.90;;;11.80;99.90;;;;;;5052763;28;20063;-79
2022/06/14 00:25:58;;;;;;;11.93;3.35;;;11.80;99.90;;;;;;5048471;28;20124;-79
2022/06/14 00:28:26;;;;;;;10.50;3.45;;;11.90;99.90;;;;;;5047061;28;20460;-78
2022/06/14 00:30:55;;;;;;;10.43;3.20;;;11.80;99.90;;;;;;5046992;28;20041;-79
2022/06/14 00:33:21;;;;;;;9.77;3.30;;;11.80;99.90;;;;;;5031360;28;20034;-79
2022/06/14 00:35:47;;;;;;;11.98;3.50;;;11.80;99.90;;;;;;5044822;28;21374;-79
2022/06/14 00:38:14;;;;;;;8.10;3.03;;;11.80;99.90;;;;;;5047865;28;20121;-79
2022/06/14 00:40:48;;;;;;;9.13;3.42;;;11.90;99.90;;;;;;5044962;28;20049;-77
2022/06/14 00:43:15;;;;;;;;;;;11.90;99.90;;;;;;5047731;28;20041;-79
2022/06/14 00:45:41;;;;;;;9.85;3.08;;;12.00;99.90;;;;;;5045537;28;19951;-79
2022/06/14 00:48:14;;;;;;;13.02;3.50;;;12.00;99.90;;;;;;5047681;28;20144;-79
2022/06/14 00:50:54;;;;;;;8.10;3.00;;;12.00;99.90;;;;;;5046781;28;20045;-79
2022/06/14 00:53:26;;;;;;;10.88;3.17;;;12.00;99.90;;;;;;5028565;28;20045;-78
2022/06/14 00:56:26;;;;;;;8.95;3.10;;;12.00;99.90;;;;;;5044262;28;20032;-79
2022/06/14 00:59:07;;;;;;;9.75;2.78;;;12.00;99.90;;;;;;5028661;28;20095;-79
2022/06/14 01:01:35;;;;;;;12.88;3.25;;;12.00;99.90;;;;;;5046710;28;20132;-79
2022/06/14 01:04:19;;;;;;;9.80;3.05;;;11.90;99.90;;;;;;5045046;28;20049;-78
2022/06/14 01:07:03;;;;;;;10.60;3.28;;;11.90;99.90;;;;;;5046777;28;20037;-79
2022/06/14 01:09:41;;;;;;;8.93;3.33;;;11.90;99.90;;;;;;5045673;28;20124;-79
2022/06/14 01:12:11;;;;;;;12.75;3.85;;;11.80;99.90;;;;;;5047246;28;20139;-78
2022/06/14 01:14:51;;;;;;;8.30;2.95;;;11.70;99.90;;;;;;5044165;28;20088;-79
2022/06/14 01:17:17;;;;;;;11.43;3.30;;;11.70;99.90;;;;;;5047014;28;20052;-80
2022/06/14 01:19:43;;;;;;;12.10;3.80;;;11.60;99.90;;;;;;5046468;28;20037;-79
2022/06/14 01:22:08;;;;;;;10.40;3.42;;;11.60;99.90;;;;;;5045575;28;20083;-79
2022/06/14 01:24:36;;;;;;;11.55;3.17;;;11.60;99.90;;;;;;5044755;28;20037;-79
2022/06/14 01:27:05;;;;;;;11.57;3.45;;;11.50;99.90;;;;;;5045300;28;20452;-79
2022/06/14 01:29:33;;;;;;;9.63;3.60;;;11.50;99.90;;;;;;5046756;28;20037;-79
2022/06/14 01:32:01;;;;;;;7.93;3.20;;;11.40;99.90;;;;;;5047563;28;20438;-79
2022/06/14 01:34:30;;;;;;;7.38;3.10;;;11.30;99.90;;;;;;5045963;28;20095;-78
2022/06/14 01:36:58;;;;;;;8.32;3.05;;;11.30;99.90;;;;;;5047245;28;20041;-78
2022/06/14 01:39:25;;;;;;;8.40;3.20;;;11.30;99.90;;;;;;5045184;28;20043;-79
2022/06/14 01:42:11;;;;;;;9.98;3.22;;;11.30;99.90;;;;;;5046897;28;20152;-79
2022/06/14 01:44:52;;;;;;;9.98;3.28;;;11.30;99.90;;;;;;5041622;28;20507;-78
2022/06/14 01:47:29;;;;;;;9.02;3.13;;;11.20;99.90;;;;;;5046085;28;20071;-79
2022/06/14 01:53:30;;;;;;;6.68;3.03;;;11.00;99.90;;;;;;5043495;28;20037;-79
2022/06/14 01:56:23;;;;;;;12.25;3.55;;;10.90;99.90;;;;;;5043623;28;20048;-79
2022/06/14 01:58:48;;;;;;;9.50;3.63;;;10.90;99.90;;;;;;5045355;28;20045;-78
2022/06/14 02:01:27;;;;;;;8.05;3.33;;;10.80;99.90;;;;;;5062783;28;20029;-79
2022/06/14 02:07:06;;;;;;;7.00;3.25;;;10.80;99.90;;;;;;5043584;28;20053;-79
2022/06/14 02:09:36;;;;;;;11.55;3.53;;;10.80;99.90;;;;;;5044724;28;20036;-79
2022/06/14 02:12:03;;;;;;;10.52;3.40;;;10.80;99.90;;;;;;5027972;28;20036;-78
2022/06/14 02:14:37;;;;;;;7.78;3.50;;;10.80;99.90;;;;;;5045330;28;20040;-79
2022/06/14 02:17:24;;;;;;;9.20;3.65;;;10.80;99.90;;;;;;5043028;28;20079;-78
2022/06/14 02:20:07;;;;;;;11.63;3.80;;;10.70;99.90;;;;;;5045846;28;20033;-78
2022/06/14 02:22:38;;;;;;;8.18;3.75;;;10.70;99.90;;;;;;5045057;28;20032;-78
2022/06/14 02:25:12;;;;;;;11.30;3.50;;;10.70;99.90;;;;;;5044639;28;20071;-78
2022/06/14 02:27:38;;;;;;;8.73;3.70;;;10.70;99.90;;;;;;5043541;28;20128;-79
2022/06/14 02:30:09;;;;;;;9.43;3.80;;;10.70;99.90;;;;;;5045469;28;20052;-79
2022/06/14 02:32:42;;;;;;;9.07;3.83;;;10.60;99.90;;;;;;5042921;28;20037;-79
2022/06/14 02:35:20;;;;;;;12.50;4.07;;;10.60;99.90;;;;;;5031975;28;20049;-78
2022/06/14 02:38:08;;;;;;;10.80;4.18;;;10.70;99.90;;;;;;5045559;28;20048;-78
2022/06/14 02:40:41;;;;;;;10.68;3.80;;;10.70;99.90;;;;;;5048584;28;20036;-79
2022/06/14 02:43:17;;;;;;;9.48;4.20;;;10.60;99.90;;;;;;5047616;28;20123;-79
2022/06/14 02:45:48;;;;;;;8.27;4.00;;;10.70;99.90;;;;;;5045610;28;20124;-79
2022/06/14 02:48:31;;;;;;;11.40;4.28;;;10.60;99.90;;;;;;5033285;28;20033;-79
2022/06/14 02:51:05;;;;;;;10.75;4.28;;;10.60;99.90;;;;;;5047853;28;20435;-79
2022/06/14 02:53:40;;;;;;;11.38;4.10;;;10.60;99.90;;;;;;5049046;28;20033;-78
2022/06/14 02:56:22;;;;;;;9.70;4.03;;;10.60;99.90;;;;;;5047737;28;20037;-79
2022/06/14 02:58:55;;;;;;;12.40;3.85;;;10.60;99.90;;;;;;5049389;28;20110;-79
2022/06/14 03:01:26;;;;;;;9.65;3.90;;;10.50;99.90;;;;;;5035300;28;20097;-79
2022/06/14 03:04:19;;;;;;;9.70;3.65;;;10.50;99.90;;;;;;5049056;28;20056;-77
2022/06/14 03:07:03;;;;;;;9.15;3.42;;;10.50;99.90;;;;;;5048879;28;20049;-78
2022/06/14 03:09:31;;;;;;;11.93;4.07;;;10.50;99.90;;;;;;5031546;28;20044;-79
2022/06/14 03:12:22;;;;;;;13.05;3.65;;;10.50;99.90;;;;;;5048219;28;21771;-78
2022/06/14 03:15:07;;;;;;;9.45;3.85;;;10.50;99.90;;;;;;5045628;28;20175;-79
2022/06/14 03:17:57;;;;;;;5.43;3.55;;;10.50;99.90;;;;;;5046769;28;20037;-79
2022/06/14 03:20:51;;;;;;;14.52;4.10;;;10.50;99.90;;;;;;5047976;28;20087;-79
2022/06/14 03:23:20;;;;;;;;;;;10.50;99.90;;;;;;5047830;28;20041;-79
2022/06/14 03:26:13;;;;;;;9.63;3.75;;;10.40;99.90;;;;;;5047635;28;19923;-78
2022/06/14 03:28:48;;;;;;;10.10;3.60;;;10.40;99.90;;;;;;5037174;28;20428;-79
2022/06/14 03:31:34;;;;;;;9.60;3.65;;;10.40;99.90;;;;;;5048810;28;20043;-79
2022/06/14 03:34:38;;;;;;;9.00;3.72;;;10.40;99.90;;;;;;5046404;28;20119;-78
2022/06/14 03:37:04;;;;;;;8.07;4.05;;;10.40;99.90;;;;;;5047459;28;20552;-79
2022/06/14 03:39:41;;;;;;;10.63;3.90;;;10.40;99.90;;;;;;5047452;28;20044;-78
2022/06/14 03:42:10;;;;;;;10.55;3.63;;;10.40;99.90;;;;;;5048115;28;20515;-79
2022/06/14 03:44:37;;;;;;;11.85;3.72;;;10.50;99.90;;;;;;5044592;28;20037;-79
2022/06/14 03:47:18;;;;;;;8.18;3.95;;;10.50;99.90;;;;;;5048354;28;20041;-76
2022/06/14 03:49:49;;;;;;;10.75;3.53;;;10.50;99.90;;;;;;5031477;28;20045;-78
2022/06/14 03:52:53;;;;;;;10.13;3.60;;;10.50;99.90;;;;;;5048508;28;20047;-79
2022/06/14 03:55:37;;;;;;;10.38;3.58;;;10.50;99.90;;;;;;4972584;28;20034;-78
2022/06/14 03:58:14;;;;;;;;;;;10.40;99.90;;;;;;5043924;28;20045;-78
2022/06/14 04:00:58;;;;;;;9.23;3.78;;;10.50;99.90;;;;;;5046274;28;20015;-78
2022/06/14 04:03:44;;;;;;;11.55;3.70;;;10.50;99.90;;;;;;5046051;28;20041;-78
2022/06/14 04:06:35;;;;;;;9.95;3.55;;;10.50;99.90;;;;;;5047829;28;20422;-79
2022/06/14 04:09:25;;;;;;;9.40;3.30;;;10.50;99.90;;;;;;5045965;28;21077;-79
2022/06/14 04:12:17;;;;;;;11.93;3.97;;;10.50;99.90;;;;;;5047781;28;20041;-79
2022/06/14 04:14:59;;;;;;;8.82;3.90;;;10.50;99.90;;;;;;5046064;28;20079;-79
2022/06/14 04:17:57;;;;;;;9.52;3.90;;;10.50;99.90;;;;;;5047856;28;20473;-78
2022/06/14 04:20:32;;;;;;;8.23;3.65;;;10.60;99.90;;;;;;5045817;28;20056;-79
2022/06/14 04:23:39;;;;;;;8.80;3.70;;;10.70;99.90;;;;;;5048006;28;20116;-79
2022/06/14 04:26:14;;;;;;;7.15;3.58;;;10.70;99.90;;;;;;5045908;28;20441;-79
2022/06/14 04:29:01;;;;;;;9.05;4.03;;;10.80;99.90;;;;;;5046143;28;20086;-78
2022/06/14 04:31:40;;;;;;;8.75;3.60;;;10.80;99.90;;;;;;5045449;28;20024;-78
2022/06/14 04:34:15;;;;;;;11.63;3.72;;;11.00;99.90;;;;;;5043252;28;20037;-78
2022/06/14 04:37:00;;;;;;;8.88;3.50;;;11.10;99.90;;;;;;5043831;28;20060;-78
2022/06/14 04:39:47;;;;;;;8.82;3.80;;;11.10;99.90;;;;;;5042137;28;20047;-78
2022/06/14 04:42:19;;;;;;;7.00;3.35;;;11.20;99.90;;;;;;5045315;28;20498;-78
2022/06/14 04:44:45;;;;;;;9.48;3.08;;;11.30;99.90;;;;;;5044729;28;20056;-78
2022/06/14 04:47:29;;;;;;;10.25;3.42;;;11.40;99.90;;;;;;5046505;28;20033;-79
2022/06/14 04:50:14;;;;;;;9.63;3.78;;;11.50;99.90;;;;;;5045221;28;20537;-79
2022/06/14 04:52:45;;;;;;;8.52;3.30;;;11.70;99.90;;;;;;5043637;28;20045;-78
2022/06/14 04:55:29;;;;;;;7.75;3.50;;;11.70;99.90;;;;;;5028992;28;20043;-78
2022/06/14 04:58:00;;;;;;;9.82;3.30;;;11.80;99.90;;;;;;5046976;28;20062;-78
2022/06/14 05:00:31;;;;;;;10.40;3.35;;;11.80;99.90;;;;;;5048217;28;20443;-78
2022/06/14 05:03:13;;;;;;;9.00;3.67;;;11.80;99.90;;;;;;5044872;28;20082;-78
2022/06/14 05:05:44;;;;;;;7.80;3.45;;;11.80;99.90;;;;;;5045934;28;20104;-79
2022/06/14 05:08:20;;;;;;;8.30;3.42;;;11.80;99.90;;;;;;5044895;28;20434;-78
2022/06/14 05:11:17;;;;;;;13.55;3.45;;;11.80;99.90;;;;;;5047255;28;20060;-79
2022/06/14 05:14:08;;;;;;;10.70;3.60;;;11.80;99.90;;;;;;5044471;28;20041;-77
2022/06/14 05:16:41;;;;;;;7.78;3.40;;;11.80;99.90;;;;;;5029988;28;20028;-79
2022/06/14 05:19:22;;;;;;;8.88;3.30;;;11.80;99.90;;;;;;5044382;28;20721;-78
2022/06/14 05:21:54;;;;;;;9.75;3.60;;;11.90;99.90;;;;;;5046471;28;20060;-78
2022/06/14 05:24:21;;;;;;;10.15;3.30;;;12.00;99.90;;;;;;5042950;28;20127;-79
2022/06/14 05:26:59;;;;;;;8.57;3.30;;;12.10;99.90;;;;;;5046804;28;20499;-79
2022/06/14 05:29:49;;;;;;;9.70;3.20;;;12.10;99.90;;;;;;5043859;28;20037;-79
2022/06/14 05:32:21;;;;;;;11.40;3.60;;;12.20;99.90;;;;;;5029242;28;20036;-77
2022/06/14 05:35:13;;;;;;;11.73;3.58;;;12.40;99.90;;;;;;5044265;28;20032;-79
2022/06/14 05:37:56;;;;;;;7.35;3.60;;;12.50;99.90;;;;;;5045103;28;20120;-78
2022/06/14 05:40:36;;;;;;;9.18;3.47;;;12.70;99.90;;;;;;5044676;28;20428;-78
2022/06/14 05:43:19;;;;;;;11.02;3.53;;;12.80;99.90;;;;;;5045099;28;20092;-77
2022/06/14 05:45:51;;;;;;;8.55;3.72;;;12.90;99.90;;;;;;5047553;28;20111;-78
2022/06/14 05:48:23;;;;;;;10.07;3.50;;;13.00;99.90;;;;;;5045765;28;20060;-77
2022/06/14 05:50:54;;;;;;;9.00;3.72;;;13.20;99.90;;;;;;5029245;28;20048;-78
2022/06/14 05:53:37;;;;;;;9.07;3.60;;;13.40;99.90;;;;;;5045171;28;20171;-78
2022/06/14 05:56:31;;;;;;;8.38;3.78;;;13.50;99.90;;;;;;5046089;28;20033;-78
2022/06/14 05:59:07;;;;;;;12.82;3.42;;;13.60;99.90;;;;;;5042729;28;20094;-78
2022/06/14 06:01:50;;;;;;;9.98;3.35;;;13.90;99.90;;;;;;5046546;28;20052;-78
2022/06/14 06:04:25;;;;;;;9.63;3.00;;;13.80;99.90;;;;;;5061998;28;20075;-77
2022/06/14 06:06:58;;;;;;;10.80;3.33;;;14.00;99.90;;;;;;5044472;28;20033;-79
2022/06/14 06:09:32;;;;;;;11.48;3.60;;;14.00;99.90;;;;;;5043689;28;20048;-78
2022/06/14 06:12:24;;;;;;;9.77;3.00;;;14.10;99.90;;;;;;5042000;28;20079;-78
2022/06/14 06:14:56;;;;;;;10.85;3.10;;;14.10;99.90;;;;;;5043137;28;20075;-79
2022/06/14 06:17:36;;;;;;;8.73;3.03;;;14.10;99.90;;;;;;5046852;28;20059;-77
2022/06/14 06:20:17;;;;;;;7.10;2.50;;;14.30;99.90;;;;;;5043129;28;20204;-78
2022/06/14 06:23:04;;;;;;;5.38;2.45;;;14.40;99.90;;;;;;5046151;28;20048;-79
2022/06/14 06:25:35;;;;;;;10.50;2.47;;;14.60;99.90;;;;;;5024999;28;20048;-80
2022/06/14 06:28:09;;;;;;;7.60;2.78;;;14.70;99.90;;;;;;5047585;28;20045;-78
2022/06/14 06:30:42;;;;;;;7.97;2.65;;;14.80;99.90;;;;;;5045425;28;20036;-80
2022/06/14 06:33:12;;;;;;;;;;;14.90;99.90;;;;;;5046380;28;20491;-79
2022/06/14 06:35:51;;;;;;;7.43;2.55;;;15.10;99.90;;;;;;5042554;28;20288;-79
2022/06/14 06:38:45;;;;;;;9.50;2.42;;;15.10;99.90;;;;;;5045617;28;20131;-77
2022/06/14 06:44:07;;;;;;;9.85;2.55;;;15.30;99.90;;;;;;5045769;28;20041;-78
2022/06/14 06:46:44;;;;;;;8.57;2.55;;;15.20;99.90;;;;;;5045586;28;20060;-79
2022/06/14 06:49:14;;;;;;;10.32;2.40;;;15.20;99.90;;;;;;5046097;28;20048;-80
2022/06/14 06:51:48;;;;;;;6.40;2.47;;;15.30;99.90;;;;;;5044992;28;22119;-78
2022/06/14 06:54:24;;;;;;;8.18;2.60;;;15.20;99.90;;;;;;5043648;28;20033;-79
2022/06/14 06:56:55;;;;;;;6.03;1.67;;;15.20;99.90;;;;;;5029117;28;20041;-80
2022/06/14 06:59:28;;;;;;;8.10;1.67;;;15.20;99.90;;;;;;5044577;28;20041;-79
2022/06/14 07:01:59;;;;;;;4.70;1.60;;;15.40;99.90;;;;;;5043015;28;20041;-81
2022/06/14 07:07:27;;;;;;;7.00;1.73;;;15.50;99.90;;;;;;5045265;28;20049;-78
2022/06/14 07:09:59;;;;;;;9.48;2.17;;;15.60;99.90;;;;;;5044363;28;20037;-79
2022/06/14 07:12:39;;;;;;;5.47;1.55;;;15.80;99.90;;;;;;5044616;28;20044;-78
2022/06/14 07:15:14;;;;;;;5.70;1.48;;;15.80;99.90;;;;;;5045051;28;20155;-79
2022/06/14 07:18:03;;;;;;;7.13;1.60;;;15.80;99.90;;;;;;5046580;28;20052;-79
2022/06/14 07:20:53;;;;;;;5.97;2.05;;;16.00;99.90;;;;;;5044380;28;20068;-78
2022/06/14 07:23:38;;;;;;;4.95;1.65;;;16.20;99.90;;;;;;5044345;28;20040;-79
2022/06/14 07:26:08;;;;;;;5.63;1.50;;;16.20;99.90;;;;;;5048480;28;20047;-80
2022/06/14 07:29:03;;;;;;;8.45;1.90;;;16.10;99.90;;;;;;5027895;28;20088;-78
2022/06/14 07:31:48;;;;;;;7.97;1.80;;;16.20;99.90;;;;;;5017177;28;20120;-79
2022/06/14 07:34:15;;;;;;;5.43;1.70;;;16.30;99.90;;;;;;5048190;28;20120;-81
2022/06/14 07:36:52;;;;;;;6.90;1.67;;;16.40;99.90;;;;;;5026794;28;20036;-78
2022/06/14 07:39:45;;;;;;;4.47;1.52;;;16.50;99.90;;;;;;5046229;28;20045;-79
2022/06/14 07:42:25;;;;;;;6.38;1.67;;;16.70;99.90;;;;;;5047449;28;20040;-79
2022/06/14 07:44:56;;;;;;;7.15;2.28;;;16.70;99.90;;;;;;5047168;28;20116;-80
2022/06/14 07:47:47;;;;;;;6.38;1.90;;;16.80;99.90;;;;;;5046442;28;20072;-78
2022/06/14 07:50:22;;;;;;;3.75;1.60;;;16.90;99.90;;;;;;5047613;28;20119;-78
2022/06/14 07:53:09;;;;;;;4.15;1.40;;;16.90;99.90;;;;;;5047554;28;20064;-78
2022/06/14 07:55:37;;;;;;;5.53;1.65;;;17.00;99.90;;;;;;5041310;28;20091;-81
2022/06/14 07:58:14;;;;;;;4.75;1.60;;;17.10;99.90;;;;;;5030683;28;20044;-79
2022/06/14 08:01:28;;;;;;;6.60;1.55;;;17.20;99.90;;;;;;5047006;28;20080;-78
2022/06/14 08:03:40;;;;;;;6.28;1.70;;;17.40;99.90;;;;;;5038648;28;20101;-79
2022/06/14 08:06:33;;;;;;;4.45;1.50;;;17.50;99.90;;;;;;5045976;28;20068;-79
2022/06/14 08:09:09;;;;;;;5.57;1.50;;;17.40;99.90;;;;;;5049724;28;20079;-80
2022/06/14 08:11:57;;;;;;;6.90;1.35;;;17.10;99.90;;;;;;5035009;28;20159;-79
2022/06/14 08:14:56;;;;;;;4.82;1.60;;;16.90;99.90;;;;;;5050527;28;20560;-80
2022/06/14 08:17:35;;;;;;;5.70;1.40;;;17.20;99.90;;;;;;5052431;28;20067;-79
2022/06/14 08:20:13;;;;;;;4.55;1.27;;;17.50;99.90;;;;;;5052326;28;20069;-79
2022/06/14 08:22:48;;;;;;;4.90;1.50;;;17.80;99.90;;;;;;5052717;28;20072;-79
2022/06/14 08:25:18;;;;;;;5.93;1.45;;;18.10;99.90;;;;;;5052829;28;20045;-81
2022/06/14 08:27:52;;;;;;;7.97;2.00;;;18.10;99.90;;;;;;5053254;28;20051;-79
2022/06/14 08:30:29;;;;;;;6.32;1.70;;;17.80;99.90;;;;;;5052001;28;20113;-79
2022/06/14 08:33:12;;;;;;;5.03;1.50;;;17.60;99.90;;;;;;5051758;28;20048;-78
2022/06/14 08:35:43;;;;;;;5.65;1.50;;;17.40;99.90;;;;;;5052534;28;20044;-78
2022/06/14 08:38:14;;;;;;;6.63;1.60;;;17.00;99.90;;;;;;5052727;28;20036;-79
2022/06/14 08:41:10;;;;;;;5.80;1.70;;;17.00;99.90;;;;;;5052809;28;20122;-78
2022/06/14 08:43:46;;;;;;;6.28;1.40;;;16.90;99.90;;;;;;5052736;28;20052;-79
2022/06/14 08:46:20;;;;;;;4.50;1.40;;;17.20;99.90;;;;;;5048461;28;20037;-80
2022/06/14 08:48:56;;;;;;;6.55;1.60;;;17.40;99.90;;;;;;5045107;28;20044;-79
2022/06/14 08:51:52;;;;;;;4.03;1.33;;;17.70;99.90;;;;;;5050668;28;20041;-78
2022/06/14 08:55:00;;;;;;;5.50;1.40;;;18.10;99.90;;;;;;5051456;28;20048;-78
2022/06/14 08:57:37;;;;;;;4.55;1.20;;;18.50;99.90;;;;;;5046287;28;20049;-78
2022/06/14 09:00:12;;;;;;;4.38;1.50;;;18.70;99.90;;;;;;5032339;28;20037;-79
2022/06/14 09:02:43;;;;;;;4.43;1.20;;;18.90;99.90;;;;;;5037453;28;20533;-79
2022/06/14 09:05:31;;;;;;;4.15;1.40;;;19.00;99.90;;;;;;5051239;28;20057;-78
2022/06/14 09:08:44;;;;;;;4.35;1.50;;;18.90;99.90;;;;;;5045136;28;20037;-79
2022/06/14 09:11:37;;;;;;;7.22;1.73;;;18.40;99.90;;;;;;5034424;28;20131;-79
2022/06/14 09:14:25;;;;;;;6.68;1.90;;;17.90;99.90;;;;;;5050751;28;20036;-79
2022/06/14 09:17:08;;;;;;;4.45;1.77;;;17.50;99.90;;;;;;5035576;28;20410;-77
2022/06/14 09:20:11;;;;;;;7.55;1.90;;;17.10;99.90;;;;;;5035359;28;20037;-78
2022/06/14 09:22:47;;;;;;;6.80;1.83;;;16.90;99.90;;;;;;5039444;28;20045;-78
2022/06/14 09:25:38;;;;;;;4.22;1.55;;;16.90;99.90;;;;;;5037634;28;20581;-79
2022/06/14 09:28:34;;;;;;;4.63;1.70;;;16.70;99.90;;;;;;5049075;28;20029;-78
2022/06/14 09:31:20;;;;;;;5.20;1.70;;;16.80;99.90;;;;;;5041975;28;20495;-78
2022/06/14 09:34:08;;;;;;;4.97;1.75;;;17.00;99.90;;;;;;5049303;28;20037;-78
2022/06/14 09:36:43;;;;;;;4.78;1.63;;;17.40;99.90;;;;;;5048458;28;20044;-78
2022/06/14 09:39:30;;;;;;;3.45;1.35;;;17.80;99.90;;;;;;5046235;28;20114;-78
2022/06/14 09:42:16;;;;;;;4.07;1.48;;;18.30;99.90;;;;;;5031688;28;20523;-77
2022/06/14 09:45:07;;;;;;;5.55;1.38;;;18.80;99.90;;;;;;5045912;28;20033;-78
2022/06/14 09:48:07;;;;;;;2.08;1.30;;;19.30;99.90;;;;;;5020918;28;20041;-78
2022/06/14 09:50:54;;;;;;;3.95;1.10;;;19.30;99.90;;;;;;5042832;28;20517;-79
2022/06/14 09:53:35;;;;;;;5.32;1.48;;;19.20;99.90;;;;;;5050056;28;20045;-79
2022/06/14 09:56:16;;;;;;;5.47;1.58;;;19.00;99.90;;;;;;5050738;28;20041;-78
2022/06/14 09:59:13;;;;;;;3.75;1.42;;;18.80;99.90;;;;;;5039231;28;20044;-78
2022/06/14 10:02:04;;;;;;;3.83;1.25;;;18.70;99.90;;;;;;5046547;28;20045;-78
2022/06/14 10:04:44;;;;;;;3.97;1.63;;;18.70;99.90;;;;;;5054632;28;20415;-78
2022/06/14 10:07:28;;;;;;;5.05;1.70;;;18.60;99.90;;;;;;5026098;28;20044;-77
2022/06/14 10:10:12;;;;;;;;;;;18.90;99.90;;;;;;5032287;28;20151;-77
2022/06/14 10:13:11;;;;;;;5.90;1.33;;;19.40;99.90;;;;;;5050149;28;19970;-78
2022/06/14 10:16:11;;;;;;;3.97;1.35;;;19.80;99.90;;;;;;5037042;28;20037;-78
2022/06/14 10:18:56;;;;;;;3.92;1.55;;;20.20;99.90;;;;;;5045050;28;20060;-78
2022/06/14 10:21:32;;;;;;;7.28;1.60;;;20.30;99.90;;;;;;5048102;28;20087;-77
2022/06/14 10:24:07;;;;;;;4.20;1.30;;;20.20;99.90;;;;;;5043107;28;20044;-79
2022/06/14 10:29:53;;;;;;;4.18;1.50;;;19.80;99.90;;;;;;5041140;28;20045;-78
2022/06/14 10:32:55;;;;;;;3.72;1.30;;;19.60;99.90;;;;;;5054931;28;20093;-79
2022/06/14 10:35:41;;;;;;;6.28;1.70;;;19.10;99.90;;;;;;5029154;28;20033;-77
2022/06/14 10:38:46;;;;;;;3.80;1.05;;;18.80;99.90;;;;;;5044496;28;20091;-79
2022/06/14 10:41:38;;;;;;;2.78;1.45;;;18.60;99.90;;;;;;5044098;28;20085;-78
2022/06/14 10:44:25;;;;;;;6.25;1.33;;;18.30;99.90;;;;;;5045919;28;20227;-79
2022/06/14 10:47:25;;;;;;;2.92;1.20;;;18.00;99.90;;;;;;5051123;28;20051;-77
2022/06/14 10:50:06;;;;;;;3.60;1.67;;;17.80;99.90;;;;;;5049656;28;20033;-79
2022/06/14 10:52:53;;;;;;;3.63;1.42;;;17.70;99.90;;;;;;5045153;28;20083;-77
2022/06/14 10:55:22;;;;;;;4.38;1.60;;;17.60;99.90;;;;;;5042745;28;20041;-78
2022/06/14 10:58:02;;;;;;;3.60;1.30;;;17.60;99.90;;;;;;5044325;28;20040;-77
2022/06/14 11:00:45;;;;;;;4.32;1.80;;;17.40;99.90;;;;;;5043628;28;20040;-78
2022/06/14 11:03:27;;;;;;;4.30;1.70;;;17.30;99.90;;;;;;5048566;28;20037;-78
2022/06/14 11:06:14;;;;;;;7.20;2.40;;;17.40;99.90;;;;;;5049428;28;20110;-78
2022/06/14 11:08:45;;;;;;;5.68;1.95;;;17.30;99.90;;;;;;5048810;28;20072;-78
2022/06/14 11:11:50;;;;;;;4.85;2.00;;;17.30;99.90;;;;;;5046584;28;20040;-77
2022/06/14 11:14:31;;;;;;;5.55;2.30;;;17.40;99.90;;;;;;5035498;28;20051;-78
2022/06/14 11:17:24;;;;;;;6.07;2.20;;;17.70;99.90;;;;;;5041114;28;20083;-78
2022/06/14 11:20:14;;;;;;;6.40;2.30;;;18.00;99.90;;;;;;5032139;28;20069;-78
2022/06/14 11:22:58;;;;;;;5.45;2.13;;;18.20;99.90;;;;;;5036949;28;20036;-77
2022/06/14 11:25:36;;;;;;;8.70;2.55;;;18.40;99.90;;;;;;5052147;28;20033;-78
2022/06/14 11:28:20;;;;;;;6.03;2.30;;;18.70;99.90;;;;;;5052813;28;20120;-78
2022/06/14 11:31:00;;;;;;;5.72;2.33;;;18.80;99.90;;;;;;5052629;28;20188;-78
2022/06/14 11:33:45;;;;;;;6.07;2.08;;;19.00;99.90;;;;;;5034649;28;20437;-79
2022/06/14 11:36:25;;;;;;;6.60;2.38;;;19.10;99.90;;;;;;5048008;28;20072;-78
2022/06/14 11:39:15;;;;;;;4.10;2.10;;;19.10;99.90;;;;;;5045348;28;20037;-78
2022/06/14 11:41:45;;;;;;;7.05;2.30;;;19.20;99.90;;;;;;5051766;28;20151;-80
2022/06/14 11:44:35;;;;;;;3.50;1.90;;;19.40;99.90;;;;;;5051685;28;20033;-78
2022/06/14 11:47:05;;;;;;;4.05;1.80;;;19.30;99.90;;;;;;5052211;28;20045;-78
2022/06/14 11:50:02;;;;;;;5.32;2.03;;;19.50;99.90;;;;;;5035475;28;20029;-77
2022/06/14 11:52:49;;;;;;;5.32;2.33;;;19.60;99.90;;;;;;5051543;28;20094;-77
2022/06/14 11:55:25;;;;;;;7.80;2.38;;;19.80;99.90;;;;;;5051860;28;20059;-77
2022/06/14 11:58:50;;;;;;;5.03;2.13;;;20.00;99.90;;;;;;5052476;28;20042;-77
2022/06/14 12:01:34;;;;;;;;;;;20.10;99.90;;;;;;5002675;28;20570;-79
2022/06/14 12:04:09;;;;;;;4.17;2.13;;;19.80;99.90;;;;;;5032355;28;19979;-79
2022/06/14 12:06:39;;;;;;;6.43;2.53;;;19.80;99.90;;;;;;5032200;28;20179;-78
2022/06/14 12:09:22;;;;;;;7.10;2.05;;;19.90;99.90;;;;;;5031673;28;20049;-78
2022/06/14 12:11:59;;;;;;;7.18;1.95;;;20.00;99.90;;;;;;5030627;28;20045;-77
2022/06/14 12:15:16;;;;;;;5.25;1.90;;;19.90;99.90;;;;;;5050273;28;20040;-77
2022/06/14 12:17:49;;;;;;;5.25;2.20;;;20.20;99.90;;;;;;5005650;28;20053;-79
2022/06/14 12:20:21;;;;;;;9.33;2.10;;;20.50;99.90;;;;;;5053099;28;20049;-77
2022/06/14 12:23:01;;;;;;;15.27;2.30;;;20.60;99.90;;;;;;5053333;28;20037;-79
2022/06/14 12:28:32;;;;;;;8.85;2.17;;;20.50;99.90;;;;;;5030369;28;20140;-77
2022/06/14 12:31:10;;;;;;;4.45;1.60;;;20.60;99.90;;;;;;5031639;28;20041;-78
2022/06/14 12:33:46;;;;;;;4.60;1.83;;;20.60;99.90;;;;;;5044725;28;20064;-78
2022/06/14 12:36:43;;;;;;;4.18;1.88;;;20.50;99.90;;;;;;5050946;28;20052;-79
2022/06/14 12:39:24;;;;;;;5.53;2.00;;;20.40;99.90;;;;;;5051819;28;20045;-77
2022/06/14 12:42:12;;;;;;;7.25;1.92;;;20.20;99.90;;;;;;5051553;28;20099;-77
2022/06/14 12:45:02;;;;;;;4.38;1.70;;;20.10;99.90;;;;;;5051097;28;20495;-77
2022/06/14 12:47:45;;;;;;;5.72;2.00;;;20.20;99.90;;;;;;5050899;28;20044;-77
2022/06/14 12:50:22;;;;;;;6.57;1.95;;;20.40;99.90;;;;;;5049849;28;20091;-77
2022/06/14 12:52:52;;;;;;;5.18;1.60;;;20.50;99.90;;;;;;5050046;28;20037;-78
2022/06/14 12:55:26;;;;;;;4.65;2.20;;;20.40;99.90;;;;;;5051463;28;20043;-78
2022/06/14 12:58:09;;;;;;;5.03;2.30;;;20.30;99.90;;;;;;5052315;28;20041;-78
2022/06/14 13:00:42;;;;;;;7.45;2.40;;;20.00;99.90;;;;;;5035866;28;20462;-77
2022/06/14 13:03:34;;;;;;;4.28;2.60;;;19.90;99.90;;;;;;5052434;28;20397;-78
2022/06/14 13:06:43;;;;;;;5.68;2.50;;;19.70;99.90;;;;;;5051304;28;20516;-78
2022/06/14 13:09:28;;;;;;;5.40;3.00;;;19.70;99.90;;;;;;5051548;28;20376;-78
2022/06/14 13:12:11;;;;;;;7.82;2.72;;;19.60;99.90;;;;;;5052114;28;20037;-78
2022/06/14 13:14:57;;;;;;;7.57;2.33;;;19.50;99.90;;;;;;5051208;28;20037;-77
2022/06/14 13:17:46;;;;;;;7.53;2.90;;;19.40;99.90;;;;;;5050711;28;20043;-78
2022/06/14 13:20:42;;;;;;;4.90;2.05;;;19.50;99.90;;;;;;5050838;28;20052;-77
2022/06/14 13:23:37;;;;;;;4.68;2.17;;;19.60;99.90;;;;;;5051057;28;20144;-78
2022/06/14 13:26:31;;;;;;;7.63;2.70;;;19.70;99.90;;;;;;5017420;28;20507;-79
2022/06/14 13:29:06;;;;;;;6.28;2.80;;;19.70;99.90;;;;;;5053347;28;20048;-77
2022/06/14 13:31:57;;;;;;;6.35;2.95;;;19.60;99.90;;;;;;5051511;28;20044;-79
2022/06/14 13:34:50;;;;;;;5.97;2.60;;;19.50;99.90;;;;;;5037124;28;20439;-78
2022/06/14 13:37:42;;;;;;;5.55;2.47;;;19.50;99.90;;;;;;5029672;28;20071;-77
2022/06/14 13:40:30;;;;;;;6.22;2.47;;;19.50;99.90;;;;;;5061864;28;20044;-78
2022/06/14 13:42:56;;;;;;;6.30;3.20;;;19.60;99.90;;;;;;5051265;28;20044;-77
2022/06/14 13:45:36;;;;;;;3.38;2.40;;;19.90;99.90;;;;;;5050703;28;20045;-78
2022/06/14 13:48:21;;;;;;;6.63;2.67;;;20.00;99.90;;;;;;5050912;28;20077;-78
2022/06/14 13:51:08;;;;;;;5.40;2.20;;;20.30;99.90;;;;;;5050701;28;20052;-78
2022/06/14 13:54:06;;;;;;;6.18;2.70;;;20.50;99.90;;;;;;5051955;28;20033;-79
2022/06/14 13:56:50;;;;;;;6.45;2.20;;;20.70;99.90;;;;;;5050484;28;20044;-77
2022/06/14 13:59:19;;;;;;;3.60;2.30;;;20.70;99.90;;;;;;5051311;28;20052;-78
2022/06/14 14:02:30;;;;;;;6.03;2.90;;;21.00;99.90;;;;;;5050207;28;20546;-78
2022/06/14 14:05:20;;;;;;;6.00;2.30;;;20.80;99.90;;;;;;5043229;28;20039;-77
2022/06/14 14:08:00;;;;;;;6.75;2.60;;;21.00;99.90;;;;;;5047466;28;20045;-78
2022/06/14 14:10:49;;;;;;;4.07;2.20;;;21.20;99.90;;;;;;5050659;28;20041;-78
2022/06/14 14:13:32;;;;;;;4.55;2.50;;;21.60;99.90;;;;;;5033777;28;20036;-77